sensor_id;sensor_type;location;lat;lon;timestamp;temperature;humidity
1075;DHT22;526;51.392;12.448;2022-09-20T00:00:32;10.80;97.30
1075;DHT22;526;51.392;12.448;2022-09-20T00:02:58;10.80;97.30
1075;DHT22;526;51.392;12.448;2022-09-20T00:05:23;10.80;97.30
1075;DHT22;526;51.392;12.448;2022-09-20T00:07:51;10.80;97.30
1075;DHT22;526;51.392;12.448;2022-09-20T00:10:17;10.70;97.30
1075;DHT22;526;51.392;12.448;2022-09-20T00:12:43;10.70;97.30
1075;DHT22;526;51.392;12.448;2022-09-20T00:15:09;10.70;97.30
1075;DHT22;526;51.392;12.448;2022-09-20T00:17:36;10.70;97.30
1075;DHT22;526;51.392;12.448;2022-09-20T00:20:02;10.70;97.30
1075;DHT22;526;51.392;12.448;2022-09-20T00:22:28;10.70;97.30
1075;DHT22;526;51.392;12.448;2022-09-20T00:24:53;10.70;97.30
1075;DHT22;526;51.392;12.448;2022-09-20T00:27:19;10.70;97.30
1075;DHT22;526;51.392;12.448;2022-09-20T00:29:44;10.70;97.30
1075;DHT22;526;51.392;12.448;2022-09-20T00:32:10;10.70;97.30
1075;DHT22;526;51.392;12.448;2022-09-20T00:34:35;10.70;97.30
1075;DHT22;526;51.392;12.448;2022-09-20T00:37:22;10.70;97.30
1075;DHT22;526;51.392;12.448;2022-09-20T00:39:48;10.70;97.30
1075;DHT22;526;51.392;12.448;2022-09-20T00:42:14;10.80;97.30
1075;DHT22;526;51.392;12.448;2022-09-20T00:45:00;10.80;97.30
1075;DHT22;526;51.392;12.448;2022-09-20T00:47:41;10.80;97.30
1075;DHT22;526;51.392;12.448;2022-09-20T00:50:28;10.80;97.30
1075;DHT22;526;51.392;12.448;2022-09-20T00:52:58;10.80;97.30
1075;DHT22;526;51.392;12.448;2022-09-20T00:55:26;10.80;97.30
1075;DHT22;526;51.392;12.448;2022-09-20T00:57:53;10.80;97.30
1075;DHT22;526;51.392;12.448;2022-09-20T01:00:19;10.80;97.30
1075;DHT22;526;51.392;12.448;2022-09-20T01:02:49;10.80;97.30
1075;DHT22;526;51.392;12.448;2022-09-20T01:05:17;10.80;97.30
1075;DHT22;526;51.392;12.448;2022-09-20T01:07:46;10.80;97.30
1075;DHT22;526;51.392;12.448;2022-09-20T01:10:12;10.80;97.30
1075;DHT22;526;51.392;12.448;2022-09-20T01:12:38;10.80;97.30
1075;DHT22;526;51.392;12.448;2022-09-20T01:15:08;10.90;97.30
1075;DHT22;526;51.392;12.448;2022-09-20T01:17:36;10.90;97.30
1075;DHT22;526;51.392;12.448;2022-09-20T01:20:12;10.90;97.30
1075;DHT22;526;51.392;12.448;2022-09-20T01:25:45;10.80;97.30
1075;DHT22;526;51.392;12.448;2022-09-20T01:28:15;10.80;97.30
1075;DHT22;526;51.392;12.448;2022-09-20T01:31:00;10.80;97.30
1075;DHT22;526;51.392;12.448;2022-09-20T01:33:46;10.80;97.30
1075;DHT22;526;51.392;12.448;2022-09-20T01:36:18;10.80;97.30
1075;DHT22;526;51.392;12.448;2022-09-20T01:41:34;10.80;97.30
1075;DHT22;526;51.392;12.448;2022-09-20T01:47:10;10.80;97.30
1075;DHT22;526;51.392;12.448;2022-09-20T01:49:56;10.70;97.30
1075;DHT22;526;51.392;12.448;2022-09-20T01:52:32;10.70;97.30
1075;DHT22;526;51.392;12.448;2022-09-20T01:55:34;10.60;97.30
1075;DHT22;526;51.392;12.448;2022-09-20T01:58:20;10.60;97.30
1075;DHT22;526;51.392;12.448;2022-09-20T02:04:28;10.50;97.30
1075;DHT22;526;51.392;12.448;2022-09-20T02:07:11;10.50;97.30
1075;DHT22;526;51.392;12.448;2022-09-20T02:10:05;10.50;97.30
1075;DHT22;526;51.392;12.448;2022-09-20T02:24:28;10.50;97.30
1075;DHT22;526;51.392;12.448;2022-09-20T02:27:23;10.60;97.30
1075;DHT22;526;51.392;12.448;2022-09-20T02:30:08;10.60;97.30
1075;DHT22;526;51.392;12.448;2022-09-20T02:35:50;10.50;97.30
1075;DHT22;526;51.392;12.448;2022-09-20T02:38:50;10.50;97.30
1075;DHT22;526;51.392;12.448;2022-09-20T02:41:29;10.40;97.30
1075;DHT22;526;51.392;12.448;2022-09-20T02:44:32;10.40;97.30
1075;DHT22;526;51.392;12.448;2022-09-20T02:47:21;10.40;97.30
1075;DHT22;526;51.392;12.448;2022-09-20T02:50:20;10.40;97.30
1075;DHT22;526;51.392;12.448;2022-09-20T02:53:25;10.40;97.30
1075;DHT22;526;51.392;12.448;2022-09-20T02:59:05;10.40;97.30
1075;DHT22;526;51.392;12.448;2022-09-20T03:41:26;10.40;97.30
1075;DHT22;526;51.392;12.448;2022-09-20T03:46:27;10.40;97.30
1075;DHT22;526;51.392;12.448;2022-09-20T03:49:32;10.40;97.30
1075;DHT22;526;51.392;12.448;2022-09-20T03:52:25;10.40;97.30
1075;DHT22;526;51.392;12.448;2022-09-20T03:57:43;10.40;97.30
1075;DHT22;526;51.392;12.448;2022-09-20T04:00:30;10.40;97.30
1075;DHT22;526;51.392;12.448;2022-09-20T04:03:22;10.40;97.30
1075;DHT22;526;51.392;12.448;2022-09-20T04:09:34;10.40;97.30
1075;DHT22;526;51.392;12.448;2022-09-20T04:12:21;10.40;97.30
1075;DHT22;526;51.392;12.448;2022-09-20T04:18:24;10.30;97.30
1075;DHT22;526;51.392;12.448;2022-09-20T04:20:42;10.30;97.30
1075;DHT22;526;51.392;12.448;2022-09-20T04:26:00;10.30;97.30
1075;DHT22;526;51.392;12.448;2022-09-20T04:28:39;10.30;97.30
1075;DHT22;526;51.392;12.448;2022-09-20T04:31:24;10.20;97.30
1075;DHT22;526;51.392;12.448;2022-09-20T04:33:55;10.20;97.30
1075;DHT22;526;51.392;12.448;2022-09-20T04:36:32;10.20;97.30
1075;DHT22;526;51.392;12.448;2022-09-20T04:39:24;10.20;97.30
1075;DHT22;526;51.392;12.448;2022-09-20T04:47:55;10.10;97.30
1075;DHT22;526;51.392;12.448;2022-09-20T04:59:15;10.10;97.30
1075;DHT22;526;51.392;12.448;2022-09-20T05:02:02;10.10;97.30
1075;DHT22;526;51.392;12.448;2022-09-20T05:07:52;10.10;97.30
1075;DHT22;526;51.392;12.448;2022-09-20T05:22:07;10.10;97.30
1075;DHT22;526;51.392;12.448;2022-09-20T05:24:47;10.20;97.30
1075;DHT22;526;51.392;12.448;2022-09-20T05:30:32;10.20;97.30
1075;DHT22;526;51.392;12.448;2022-09-20T05:35:59;10.20;97.30
1075;DHT22;526;51.392;12.448;2022-09-20T05:38:43;10.20;97.30
1075;DHT22;526;51.392;12.448;2022-09-20T05:50:12;10.20;97.30
1075;DHT22;526;51.392;12.448;2022-09-20T05:58:44;10.30;97.30
1075;DHT22;526;51.392;12.448;2022-09-20T06:01:18;10.30;97.30
1075;DHT22;526;51.392;12.448;2022-09-20T06:07:02;10.40;97.30
1075;DHT22;526;51.392;12.448;2022-09-20T06:09:38;10.30;97.30
1075;DHT22;526;51.392;12.448;2022-09-20T06:12:25;10.30;97.30
1075;DHT22;526;51.392;12.448;2022-09-20T06:15:01;10.30;97.30
1075;DHT22;526;51.392;12.448;2022-09-20T06:17:33;10.30;97.30
1075;DHT22;526;51.392;12.448;2022-09-20T06:20:27;10.40;97.30
1075;DHT22;526;51.392;12.448;2022-09-20T06:22:55;10.40;97.30
1075;DHT22;526;51.392;12.448;2022-09-20T06:25:25;10.40;97.30
1075;DHT22;526;51.392;12.448;2022-09-20T06:28:07;10.40;97.30
1075;DHT22;526;51.392;12.448;2022-09-20T06:30:40;10.40;97.30
1075;DHT22;526;51.392;12.448;2022-09-20T06:33:13;10.50;97.30
1075;DHT22;526;51.392;12.448;2022-09-20T06:41:13;10.50;97.30
1075;DHT22;526;51.392;12.448;2022-09-20T06:43:56;10.50;97.30
1075;DHT22;526;51.392;12.448;2022-09-20T06:46:29;10.50;97.30
1075;DHT22;526;51.392;12.448;2022-09-20T06:48:56;10.50;97.30
1075;DHT22;526;51.392;12.448;2022-09-20T06:51:23;10.50;97.30
1075;DHT22;526;51.392;12.448;2022-09-20T06:53:50;10.60;97.30
1075;DHT22;526;51.392;12.448;2022-09-20T06:56:18;10.60;97.30
1075;DHT22;526;51.392;12.448;2022-09-20T06:58:45;10.60;97.30
1075;DHT22;526;51.392;12.448;2022-09-20T07:01:10;10.60;97.30
1075;DHT22;526;51.392;12.448;2022-09-20T07:03:38;10.70;97.30
1075;DHT22;526;51.392;12.448;2022-09-20T07:06:04;10.70;97.30
1075;DHT22;526;51.392;12.448;2022-09-20T07:08:29;10.80;97.30
1075;DHT22;526;51.392;12.448;2022-09-20T07:10:55;10.80;97.30
1075;DHT22;526;51.392;12.448;2022-09-20T07:13:20;10.80;97.30
1075;DHT22;526;51.392;12.448;2022-09-20T07:15:46;10.90;97.30
1075;DHT22;526;51.392;12.448;2022-09-20T07:18:12;10.90;97.30
1075;DHT22;526;51.392;12.448;2022-09-20T07:20:38;10.90;97.30
1075;DHT22;526;51.392;12.448;2022-09-20T07:23:04;10.90;97.30
1075;DHT22;526;51.392;12.448;2022-09-20T07:25:30;11.00;97.30
1075;DHT22;526;51.392;12.448;2022-09-20T07:27:56;11.00;97.30
1075;DHT22;526;51.392;12.448;2022-09-20T07:30:21;11.00;97.30
1075;DHT22;526;51.392;12.448;2022-09-20T07:32:47;11.00;97.30
1075;DHT22;526;51.392;12.448;2022-09-20T07:35:13;11.00;97.30
1075;DHT22;526;51.392;12.448;2022-09-20T07:37:38;11.00;97.30
1075;DHT22;526;51.392;12.448;2022-09-20T07:40:08;11.00;97.30
1075;DHT22;526;51.392;12.448;2022-09-20T07:42:37;11.00;97.30
1075;DHT22;526;51.392;12.448;2022-09-20T07:45:03;11.00;97.30
1075;DHT22;526;51.392;12.448;2022-09-20T07:47:29;11.10;97.30
1075;DHT22;526;51.392;12.448;2022-09-20T07:50:02;11.10;97.30
1075;DHT22;526;51.392;12.448;2022-09-20T07:52:28;11.20;97.30
1075;DHT22;526;51.392;12.448;2022-09-20T07:54:53;11.20;97.30
1075;DHT22;526;51.392;12.448;2022-09-20T07:57:19;11.20;97.30
1075;DHT22;526;51.392;12.448;2022-09-20T07:59:47;11.20;97.30
1075;DHT22;526;51.392;12.448;2022-09-20T08:02:15;11.20;97.30
1075;DHT22;526;51.392;12.448;2022-09-20T08:04:41;11.20;97.30
1075;DHT22;526;51.392;12.448;2022-09-20T08:07:09;11.30;97.30
1075;DHT22;526;51.392;12.448;2022-09-20T08:09:39;11.30;97.30
1075;DHT22;526;51.392;12.448;2022-09-20T08:15:11;11.40;97.30
1075;DHT22;526;51.392;12.448;2022-09-20T08:17:39;11.40;97.30
1075;DHT22;526;51.392;12.448;2022-09-20T08:23:11;11.50;97.30
1075;DHT22;526;51.392;12.448;2022-09-20T08:25:41;11.60;97.30
1075;DHT22;526;51.392;12.448;2022-09-20T08:28:07;11.60;97.30
1075;DHT22;526;51.392;12.448;2022-09-20T08:30:37;11.70;97.30
1075;DHT22;526;51.392;12.448;2022-09-20T08:33:03;11.70;97.30
1075;DHT22;526;51.392;12.448;2022-09-20T08:35:31;11.70;97.30
1075;DHT22;526;51.392;12.448;2022-09-20T08:37:58;11.80;97.30
1075;DHT22;526;51.392;12.448;2022-09-20T08:40:31;11.80;97.30
1075;DHT22;526;51.392;12.448;2022-09-20T08:42:57;11.80;97.30
1075;DHT22;526;51.392;12.448;2022-09-20T08:45:24;11.80;97.30
1075;DHT22;526;51.392;12.448;2022-09-20T08:47:59;11.80;97.30
1075;DHT22;526;51.392;12.448;2022-09-20T08:50:26;11.90;97.30
1075;DHT22;526;51.392;12.448;2022-09-20T08:52:54;11.90;97.30
1075;DHT22;526;51.392;12.448;2022-09-20T08:55:26;11.90;97.30
1075;DHT22;526;51.392;12.448;2022-09-20T08:58:04;11.90;97.30
1075;DHT22;526;51.392;12.448;2022-09-20T09:00:32;11.80;97.30
1075;DHT22;526;51.392;12.448;2022-09-20T09:03:18;11.80;97.30
1075;DHT22;526;51.392;12.448;2022-09-20T09:05:55;11.80;97.30
1075;DHT22;526;51.392;12.448;2022-09-20T09:08:33;11.80;97.30
1075;DHT22;526;51.392;12.448;2022-09-20T09:11:03;11.80;97.30
1075;DHT22;526;51.392;12.448;2022-09-20T09:13:47;11.80;97.30
1075;DHT22;526;51.392;12.448;2022-09-20T09:16:18;11.80;97.30
1075;DHT22;526;51.392;12.448;2022-09-20T09:18:46;11.80;97.30
1075;DHT22;526;51.392;12.448;2022-09-20T09:21:29;11.70;97.30
1075;DHT22;526;51.392;12.448;2022-09-20T09:24:05;11.70;97.30
1075;DHT22;526;51.392;12.448;2022-09-20T09:26:40;11.70;97.30
1075;DHT22;526;51.392;12.448;2022-09-20T09:29:08;11.80;97.30
1075;DHT22;526;51.392;12.448;2022-09-20T09:31:34;11.80;97.30
1075;DHT22;526;51.392;12.448;2022-09-20T09:34:00;11.90;97.30
1075;DHT22;526;51.392;12.448;2022-09-20T09:36:26;12.00;97.30
1075;DHT22;526;51.392;12.448;2022-09-20T09:41:40;12.20;97.30
1075;DHT22;526;51.392;12.448;2022-09-20T09:44:19;12.30;97.30
1075;DHT22;526;51.392;12.448;2022-09-20T09:46:58;12.50;97.30
1075;DHT22;526;51.392;12.448;2022-09-20T09:49:33;12.70;97.30
1075;DHT22;526;51.392;12.448;2022-09-20T09:55:25;12.90;97.30
1075;DHT22;526;51.392;12.448;2022-09-20T10:01:53;13.00;97.30
1075;DHT22;526;51.392;12.448;2022-09-20T10:07:27;13.00;97.30
1075;DHT22;526;51.392;12.448;2022-09-20T10:16:28;13.40;97.30
1075;DHT22;526;51.392;12.448;2022-09-20T10:19:14;13.50;97.30
1075;DHT22;526;51.392;12.448;2022-09-20T10:21:54;13.40;97.30
1075;DHT22;526;51.392;12.448;2022-09-20T10:24:43;13.40;97.30
1075;DHT22;526;51.392;12.448;2022-09-20T11:08:42;14.80;97.30
1075;DHT22;526;51.392;12.448;2022-09-20T11:11:33;14.80;97.30
1075;DHT22;526;51.392;12.448;2022-09-20T11:14:48;14.80;97.30
1075;DHT22;526;51.392;12.448;2022-09-20T11:25:11;14.70;97.30
1075;DHT22;526;51.392;12.448;2022-09-20T11:28:08;14.90;97.30
1075;DHT22;526;51.392;12.448;2022-09-20T11:37:03;15.70;96.70
1075;DHT22;526;51.392;12.448;2022-09-20T11:42:33;15.70;96.50
1075;DHT22;526;51.392;12.448;2022-09-20T11:45:16;15.40;97.30
1075;DHT22;526;51.392;12.448;2022-09-20T11:51:25;14.90;97.30
1075;DHT22;526;51.392;12.448;2022-09-20T11:56:54;14.80;97.30
1075;DHT22;526;51.392;12.448;2022-09-20T12:02:03;15.10;97.30
1075;DHT22;526;51.392;12.448;2022-09-20T12:04:31;15.40;97.30
1075;DHT22;526;51.392;12.448;2022-09-20T12:07:25;15.70;97.30
1075;DHT22;526;51.392;12.448;2022-09-20T12:10:00;15.90;97.30
1075;DHT22;526;51.392;12.448;2022-09-20T12:12:40;16.00;95.70
1075;DHT22;526;51.392;12.448;2022-09-20T12:28:58;16.40;93.60
1075;DHT22;526;51.392;12.448;2022-09-20T12:36:36;16.30;91.50
1075;DHT22;526;51.392;12.448;2022-09-20T12:39:14;16.50;92.00
1075;DHT22;526;51.392;12.448;2022-09-20T12:41:58;16.70;93.00
1075;DHT22;526;51.392;12.448;2022-09-20T12:45:14;16.90;93.30
1075;DHT22;526;51.392;12.448;2022-09-20T12:47:51;16.90;93.20
1075;DHT22;526;51.392;12.448;2022-09-20T12:50:20;17.00;92.10
1075;DHT22;526;51.392;12.448;2022-09-20T12:53:11;17.10;90.90
1075;DHT22;526;51.392;12.448;2022-09-20T13:03:42;17.90;90.90
1075;DHT22;526;51.392;12.448;2022-09-20T13:11:41;18.00;87.70
1075;DHT22;526;51.392;12.448;2022-09-20T13:14:13;17.80;88.60
1075;DHT22;526;51.392;12.448;2022-09-20T13:16:53;17.60;89.30
1075;DHT22;526;51.392;12.448;2022-09-20T13:24:24;17.90;87.80
1075;DHT22;526;51.392;12.448;2022-09-20T13:26:51;18.00;89.90
1075;DHT22;526;51.392;12.448;2022-09-20T13:29:28;18.10;89.00
1075;DHT22;526;51.392;12.448;2022-09-20T13:31:55;18.30;87.10
1075;DHT22;526;51.392;12.448;2022-09-20T13:34:38;18.20;84.80
1075;DHT22;526;51.392;12.448;2022-09-20T13:37:04;18.20;83.80
1075;DHT22;526;51.392;12.448;2022-09-20T13:39:34;18.30;85.70
1075;DHT22;526;51.392;12.448;2022-09-20T13:42:06;18.40;85.40
1075;DHT22;526;51.392;12.448;2022-09-20T13:44:33;18.50;85.00
1075;DHT22;526;51.392;12.448;2022-09-20T13:46:59;18.50;83.50
1075;DHT22;526;51.392;12.448;2022-09-20T13:49:30;18.50;83.20
1075;DHT22;526;51.392;12.448;2022-09-20T13:51:56;18.30;84.20
1075;DHT22;526;51.392;12.448;2022-09-20T13:54:26;18.30;86.00
1075;DHT22;526;51.392;12.448;2022-09-20T13:56:53;18.30;85.40
1075;DHT22;526;51.392;12.448;2022-09-20T13:59:20;18.30;84.90
1075;DHT22;526;51.392;12.448;2022-09-20T14:01:52;18.40;84.00
1075;DHT22;526;51.392;12.448;2022-09-20T14:04:27;18.50;82.60
1075;DHT22;526;51.392;12.448;2022-09-20T14:06:55;18.60;81.50
1075;DHT22;526;51.392;12.448;2022-09-20T14:09:34;18.50;81.30
1075;DHT22;526;51.392;12.448;2022-09-20T14:12:03;18.50;82.80
1075;DHT22;526;51.392;12.448;2022-09-20T14:14:30;18.70;84.50
1075;DHT22;526;51.392;12.448;2022-09-20T14:17:25;18.70;85.90
1075;DHT22;526;51.392;12.448;2022-09-20T14:20:32;18.80;83.60
1075;DHT22;526;51.392;12.448;2022-09-20T14:23:26;18.90;82.30
1075;DHT22;526;51.392;12.448;2022-09-20T14:26:35;19.00;82.70
1075;DHT22;526;51.392;12.448;2022-09-20T14:35:32;19.10;79.30
1075;DHT22;526;51.392;12.448;2022-09-20T14:38:13;19.10;80.20
1075;DHT22;526;51.392;12.448;2022-09-20T14:40:45;19.10;82.20
1075;DHT22;526;51.392;12.448;2022-09-20T14:43:23;19.30;80.90
1075;DHT22;526;51.392;12.448;2022-09-20T14:46:27;19.30;81.40
1075;DHT22;526;51.392;12.448;2022-09-20T14:49:29;19.40;79.60
1075;DHT22;526;51.392;12.448;2022-09-20T14:52:37;19.50;81.10
1075;DHT22;526;51.392;12.448;2022-09-20T14:55:32;19.50;79.40
1075;DHT22;526;51.392;12.448;2022-09-20T14:58:14;19.50;79.50
1075;DHT22;526;51.392;12.448;2022-09-20T15:01:17;19.60;79.80
1075;DHT22;526;51.392;12.448;2022-09-20T15:04:18;19.60;80.60
1075;DHT22;526;51.392;12.448;2022-09-20T15:06:55;19.60;80.20
1075;DHT22;526;51.392;12.448;2022-09-20T15:09:55;19.70;81.10
1075;DHT22;526;51.392;12.448;2022-09-20T15:12:30;19.70;82.70
1075;DHT22;526;51.392;12.448;2022-09-20T15:15:01;19.80;82.80
1075;DHT22;526;51.392;12.448;2022-09-20T15:17:27;19.80;83.60
1075;DHT22;526;51.392;12.448;2022-09-20T15:19:52;19.80;83.30
1075;DHT22;526;51.392;12.448;2022-09-20T15:22:20;19.80;83.20
1075;DHT22;526;51.392;12.448;2022-09-20T15:24:46;19.80;83.10
1075;DHT22;526;51.392;12.448;2022-09-20T15:27:12;19.70;81.30
1075;DHT22;526;51.392;12.448;2022-09-20T15:29:38;19.70;81.60
1075;DHT22;526;51.392;12.448;2022-09-20T15:32:03;19.60;81.00
1075;DHT22;526;51.392;12.448;2022-09-20T15:34:30;19.50;80.60
1075;DHT22;526;51.392;12.448;2022-09-20T15:36:56;19.40;81.90
1075;DHT22;526;51.392;12.448;2022-09-20T15:39:21;19.30;81.80
1075;DHT22;526;51.392;12.448;2022-09-20T15:41:51;19.30;81.80
1075;DHT22;526;51.392;12.448;2022-09-20T15:44:17;19.40;82.60
1075;DHT22;526;51.392;12.448;2022-09-20T15:46:42;19.40;82.60
1075;DHT22;526;51.392;12.448;2022-09-20T15:49:10;19.30;82.40
1075;DHT22;526;51.392;12.448;2022-09-20T15:51:36;19.30;83.00
1075;DHT22;526;51.392;12.448;2022-09-20T15:54:05;19.20;83.30
1075;DHT22;526;51.392;12.448;2022-09-20T15:56:34;19.20;81.90
1075;DHT22;526;51.392;12.448;2022-09-20T15:59:03;19.10;81.50
1075;DHT22;526;51.392;12.448;2022-09-20T16:01:30;19.00;82.00
1075;DHT22;526;51.392;12.448;2022-09-20T16:04:05;18.80;83.10
1075;DHT22;526;51.392;12.448;2022-09-20T16:06:31;18.50;83.10
1075;DHT22;526;51.392;12.448;2022-09-20T16:08:57;18.30;83.50
1075;DHT22;526;51.392;12.448;2022-09-20T16:11:22;18.00;83.80
1075;DHT22;526;51.392;12.448;2022-09-20T16:13:53;17.80;84.90
1075;DHT22;526;51.392;12.448;2022-09-20T16:16:19;17.50;85.70
1075;DHT22;526;51.392;12.448;2022-09-20T16:18:44;17.40;86.20
1075;DHT22;526;51.392;12.448;2022-09-20T16:21:28;17.40;86.10
1075;DHT22;526;51.392;12.448;2022-09-20T16:23:55;17.30;85.70
1075;DHT22;526;51.392;12.448;2022-09-20T16:26:24;17.20;86.80
1075;DHT22;526;51.392;12.448;2022-09-20T16:28:50;17.30;86.10
1075;DHT22;526;51.392;12.448;2022-09-20T16:31:45;17.40;87.00
1075;DHT22;526;51.392;12.448;2022-09-20T16:36:51;17.40;85.50
1075;DHT22;526;51.392;12.448;2022-09-20T16:39:19;17.40;85.20
1075;DHT22;526;51.392;12.448;2022-09-20T16:41:46;17.30;84.00
1075;DHT22;526;51.392;12.448;2022-09-20T16:44:13;17.30;84.40
1075;DHT22;526;51.392;12.448;2022-09-20T16:46:39;17.30;84.60
1075;DHT22;526;51.392;12.448;2022-09-20T16:49:06;17.20;84.60
1075;DHT22;526;51.392;12.448;2022-09-20T16:51:34;17.10;84.90
1075;DHT22;526;51.392;12.448;2022-09-20T16:54:06;17.00;85.80
1075;DHT22;526;51.392;12.448;2022-09-20T16:56:33;16.80;85.70
1075;DHT22;526;51.392;12.448;2022-09-20T16:59:00;16.60;86.20
1075;DHT22;526;51.392;12.448;2022-09-20T17:01:27;16.40;87.20
1075;DHT22;526;51.392;12.448;2022-09-20T17:03:53;16.20;87.90
1075;DHT22;526;51.392;12.448;2022-09-20T17:06:19;16.00;88.90
1075;DHT22;526;51.392;12.448;2022-09-20T17:08:45;15.90;89.90
1075;DHT22;526;51.392;12.448;2022-09-20T17:11:16;15.70;90.30
1075;DHT22;526;51.392;12.448;2022-09-20T17:13:43;15.60;89.90
1075;DHT22;526;51.392;12.448;2022-09-20T17:16:15;15.40;90.60
1075;DHT22;526;51.392;12.448;2022-09-20T17:18:43;15.30;90.70
1075;DHT22;526;51.392;12.448;2022-09-20T17:21:14;15.20;91.30
1075;DHT22;526;51.392;12.448;2022-09-20T17:23:41;15.10;91.50
1075;DHT22;526;51.392;12.448;2022-09-20T17:26:14;15.00;91.90
1075;DHT22;526;51.392;12.448;2022-09-20T17:28:51;14.90;92.30
1075;DHT22;526;51.392;12.448;2022-09-20T17:31:43;14.80;92.90
1075;DHT22;526;51.392;12.448;2022-09-20T17:34:13;14.70;93.30
1075;DHT22;526;51.392;12.448;2022-09-20T17:36:44;14.60;93.30
1075;DHT22;526;51.392;12.448;2022-09-20T17:39:12;14.40;94.10
1075;DHT22;526;51.392;12.448;2022-09-20T17:41:48;14.30;94.90
1075;DHT22;526;51.392;12.448;2022-09-20T17:44:14;14.20;96.00
1075;DHT22;526;51.392;12.448;2022-09-20T17:46:44;14.10;97.00
1075;DHT22;526;51.392;12.448;2022-09-20T17:49:12;13.90;97.30
1075;DHT22;526;51.392;12.448;2022-09-20T17:51:52;13.70;97.30
1075;DHT22;526;51.392;12.448;2022-09-20T17:54:18;13.60;97.30
1075;DHT22;526;51.392;12.448;2022-09-20T17:56:46;13.60;97.30
1075;DHT22;526;51.392;12.448;2022-09-20T17:59:12;13.50;97.30
1075;DHT22;526;51.392;12.448;2022-09-20T18:01:40;13.50;97.30
1075;DHT22;526;51.392;12.448;2022-09-20T18:04:07;13.40;97.30
1075;DHT22;526;51.392;12.448;2022-09-20T18:06:47;13.40;97.30
1075;DHT22;526;51.392;12.448;2022-09-20T18:09:15;13.30;97.30
1075;DHT22;526;51.392;12.448;2022-09-20T18:11:44;13.30;97.30
1075;DHT22;526;51.392;12.448;2022-09-20T18:14:13;13.20;97.30
1075;DHT22;526;51.392;12.448;2022-09-20T18:16:38;13.10;97.30
1075;DHT22;526;51.392;12.448;2022-09-20T18:19:06;13.10;97.30
1075;DHT22;526;51.392;12.448;2022-09-20T18:21:33;13.00;97.30
1075;DHT22;526;51.392;12.448;2022-09-20T18:24:01;12.90;97.30
1075;DHT22;526;51.392;12.448;2022-09-20T18:26:29;12.90;97.30
1075;DHT22;526;51.392;12.448;2022-09-20T18:29:09;12.90;97.30
1075;DHT22;526;51.392;12.448;2022-09-20T18:31:49;12.80;97.30
1075;DHT22;526;51.392;12.448;2022-09-20T18:34:18;12.80;97.30
1075;DHT22;526;51.392;12.448;2022-09-20T18:36:46;12.70;97.30
1075;DHT22;526;51.392;12.448;2022-09-20T18:39:12;12.70;97.30
1075;DHT22;526;51.392;12.448;2022-09-20T18:41:38;12.70;97.30
1075;DHT22;526;51.392;12.448;2022-09-20T18:44:10;12.60;97.30
1075;DHT22;526;51.392;12.448;2022-09-20T18:46:39;12.60;97.30
1075;DHT22;526;51.392;12.448;2022-09-20T18:49:08;12.50;97.30
1075;DHT22;526;51.392;12.448;2022-09-20T18:51:35;12.50;97.30
1075;DHT22;526;51.392;12.448;2022-09-20T18:54:01;12.40;97.30
1075;DHT22;526;51.392;12.448;2022-09-20T18:56:29;12.30;97.30
1075;DHT22;526;51.392;12.448;2022-09-20T18:58:58;12.30;97.30
1075;DHT22;526;51.392;12.448;2022-09-20T19:04:46;12.20;97.30
1075;DHT22;526;51.392;12.448;2022-09-20T19:07:40;12.20;97.30
1075;DHT22;526;51.392;12.448;2022-09-20T19:13:05;12.20;97.30
1075;DHT22;526;51.392;12.448;2022-09-20T19:21:30;11.90;97.30
1075;DHT22;526;51.392;12.448;2022-09-20T19:24:07;11.80;97.30
1075;DHT22;526;51.392;12.448;2022-09-20T19:26:37;11.70;97.30
1075;DHT22;526;51.392;12.448;2022-09-20T19:29:23;11.60;97.30
1075;DHT22;526;51.392;12.448;2022-09-20T19:31:56;11.60;97.30
1075;DHT22;526;51.392;12.448;2022-09-20T19:34:28;11.50;97.30
1075;DHT22;526;51.392;12.448;2022-09-20T19:46:06;11.30;97.30
1075;DHT22;526;51.392;12.448;2022-09-20T19:48:47;11.30;97.30
1075;DHT22;526;51.392;12.448;2022-09-20T19:51:18;11.30;97.30
1075;DHT22;526;51.392;12.448;2022-09-20T19:53:44;11.20;97.30
1075;DHT22;526;51.392;12.448;2022-09-20T19:56:18;11.10;97.30
1075;DHT22;526;51.392;12.448;2022-09-20T19:58:47;11.10;97.30
1075;DHT22;526;51.392;12.448;2022-09-20T20:01:20;11.00;97.30
1075;DHT22;526;51.392;12.448;2022-09-20T20:03:50;11.00;97.30
1075;DHT22;526;51.392;12.448;2022-09-20T20:06:29;10.90;97.30
1075;DHT22;526;51.392;12.448;2022-09-20T20:09:22;10.90;97.30
1075;DHT22;526;51.392;12.448;2022-09-20T20:15:16;10.70;97.30
1075;DHT22;526;51.392;12.448;2022-09-20T20:18:00;10.60;97.30
1075;DHT22;526;51.392;12.448;2022-09-20T20:20:49;10.60;97.30
1075;DHT22;526;51.392;12.448;2022-09-20T20:23:31;10.50;97.30
1075;DHT22;526;51.392;12.448;2022-09-20T20:26:07;10.50;97.30
1075;DHT22;526;51.392;12.448;2022-09-20T20:28:34;10.40;97.30
1075;DHT22;526;51.392;12.448;2022-09-20T20:31:03;10.40;97.30
1075;DHT22;526;51.392;12.448;2022-09-20T20:33:29;10.40;97.30
1075;DHT22;526;51.392;12.448;2022-09-20T20:36:00;10.30;97.30
1075;DHT22;526;51.392;12.448;2022-09-20T20:38:30;10.30;97.30
1075;DHT22;526;51.392;12.448;2022-09-20T20:41:09;10.30;97.30
1075;DHT22;526;51.392;12.448;2022-09-20T20:43:38;10.30;97.30
1075;DHT22;526;51.392;12.448;2022-09-20T20:46:05;10.30;97.30
1075;DHT22;526;51.392;12.448;2022-09-20T20:48:34;10.30;97.30
1075;DHT22;526;51.392;12.448;2022-09-20T20:51:05;10.30;97.30
1075;DHT22;526;51.392;12.448;2022-09-20T20:53:35;10.30;97.30
1075;DHT22;526;51.392;12.448;2022-09-20T20:56:09;10.40;97.30
1075;DHT22;526;51.392;12.448;2022-09-20T20:58:36;10.40;97.30
1075;DHT22;526;51.392;12.448;2022-09-20T21:01:10;10.40;97.30
1075;DHT22;526;51.392;12.448;2022-09-20T21:03:40;10.40;97.30
1075;DHT22;526;51.392;12.448;2022-09-20T21:06:10;10.40;97.30
1075;DHT22;526;51.392;12.448;2022-09-20T21:08:40;10.40;97.30
1075;DHT22;526;51.392;12.448;2022-09-20T21:11:15;10.40;97.30
1075;DHT22;526;51.392;12.448;2022-09-20T21:13:43;10.40;97.30
1075;DHT22;526;51.392;12.448;2022-09-20T21:16:13;10.50;97.30
1075;DHT22;526;51.392;12.448;2022-09-20T21:18:41;10.50;97.30
1075;DHT22;526;51.392;12.448;2022-09-20T21:23:52;10.60;97.30
1075;DHT22;526;51.392;12.448;2022-09-20T21:26:19;10.60;97.30
1075;DHT22;526;51.392;12.448;2022-09-20T21:28:51;10.60;97.30
1075;DHT22;526;51.392;12.448;2022-09-20T21:31:19;10.60;97.30
1075;DHT22;526;51.392;12.448;2022-09-20T21:33:45;10.70;97.30
1075;DHT22;526;51.392;12.448;2022-09-20T21:36:16;10.70;97.30
1075;DHT22;526;51.392;12.448;2022-09-20T21:38:43;10.70;97.30
1075;DHT22;526;51.392;12.448;2022-09-20T21:41:17;10.80;97.30
1075;DHT22;526;51.392;12.448;2022-09-20T21:43:57;10.80;97.30
1075;DHT22;526;51.392;12.448;2022-09-20T21:46:33;10.80;97.30
1075;DHT22;526;51.392;12.448;2022-09-20T21:49:03;10.80;97.30
1075;DHT22;526;51.392;12.448;2022-09-20T21:51:30;10.90;97.30
1075;DHT22;526;51.392;12.448;2022-09-20T21:53:57;10.90;97.30